createdAt,value
2017-05-15T00:00:15.638Z,14.32
2017-05-15T00:00:56.231Z,14.33
2017-05-15T00:01:36.794Z,14.39
2017-05-15T00:02:17.368Z,14.24
2017-05-15T00:02:57.952Z,14.25
2017-05-15T00:03:38.513Z,14.25
2017-05-15T00:04:19.086Z,14.25
2017-05-15T00:04:59.705Z,14.21
2017-05-15T00:05:40.288Z,14.29
2017-05-15T00:06:20.866Z,14.18
2017-05-15T00:07:01.489Z,14.27
2017-05-15T00:07:42.019Z,14.29
2017-05-15T00:08:22.600Z,14.2
2017-05-15T00:09:03.208Z,14.21
2017-05-15T00:09:43.838Z,14.25
2017-05-15T00:10:24.413Z,14.24
2017-05-15T00:11:05.004Z,14.18
2017-05-15T00:11:45.614Z,14.2
2017-05-15T00:12:26.194Z,14.24
2017-05-15T00:13:06.760Z,14.17
2017-05-15T00:13:47.374Z,14.17
2017-05-15T00:14:27.957Z,14.1
2017-05-15T00:15:08.590Z,14.06
2017-05-15T00:15:49.161Z,14.04
2017-05-15T00:16:29.759Z,14.03
2017-05-15T00:17:10.356Z,14.06
2017-05-15T00:17:50.938Z,14
2017-05-15T00:18:31.542Z,14.02
2017-05-15T00:19:12.121Z,13.92
2017-05-15T00:19:52.675Z,13.99
2017-05-15T00:20:33.264Z,13.89
2017-05-15T00:21:13.877Z,13.97
2017-05-15T00:21:54.469Z,13.89
2017-05-15T00:22:35.064Z,13.84
2017-05-15T00:23:15.614Z,13.85
2017-05-15T00:23:56.202Z,13.85
2017-05-15T00:24:36.813Z,13.85
2017-05-15T00:25:17.355Z,13.85
2017-05-15T00:25:57.934Z,13.78
2017-05-15T00:26:38.528Z,13.79
2017-05-15T00:27:19.098Z,13.78
2017-05-15T00:27:59.721Z,13.69
2017-05-15T00:28:40.246Z,13.69
2017-05-15T00:29:20.830Z,13.75
2017-05-15T00:30:01.414Z,13.7
2017-05-15T00:30:41.995Z,13.7
2017-05-15T00:31:22.567Z,13.69
2017-05-15T00:32:03.160Z,13.64
2017-05-15T00:32:43.739Z,13.63
2017-05-15T00:33:24.308Z,13.54
2017-05-15T00:34:04.889Z,13.63
2017-05-15T00:34:45.469Z,13.6
2017-05-15T00:35:26.063Z,13.6
2017-05-15T00:36:06.660Z,13.51
2017-05-15T00:36:47.227Z,13.55
2017-05-15T00:37:27.800Z,13.55
2017-05-15T00:38:08.366Z,13.55
2017-05-15T00:38:48.957Z,13.55
2017-05-15T00:39:29.527Z,13.48
2017-05-15T00:40:10.095Z,13.41
2017-05-15T00:40:50.666Z,13.44
2017-05-15T00:41:31.246Z,13.46
2017-05-15T00:42:11.821Z,13.42
2017-05-15T00:42:52.390Z,13.3
2017-05-15T00:43:32.959Z,13.41
2017-05-15T00:44:13.530Z,13.28
2017-05-15T00:44:54.130Z,13.36
2017-05-15T00:45:34.695Z,13.41
2017-05-15T00:46:15.271Z,13.36
2017-05-15T00:46:55.851Z,13.36
2017-05-15T00:47:36.453Z,13.42
2017-05-15T00:48:17.025Z,13.44
2017-05-15T00:48:57.592Z,13.44
2017-05-15T00:49:38.167Z,13.44
2017-05-15T00:50:18.737Z,13.42
2017-05-15T00:50:59.316Z,13.41
2017-05-15T00:51:39.969Z,13.42
2017-05-15T00:52:20.529Z,13.46
2017-05-15T00:53:01.096Z,13.38
2017-05-15T00:53:41.690Z,13.41
2017-05-15T00:54:22.309Z,13.42
2017-05-15T00:55:02.859Z,13.51
2017-05-15T00:55:43.449Z,13.51
2017-05-15T00:56:24.017Z,13.52
2017-05-15T00:57:04.592Z,13.49
2017-05-15T00:57:45.165Z,13.52
2017-05-15T00:58:25.737Z,13.49
2017-05-15T00:59:06.310Z,13.51
2017-05-15T00:59:46.894Z,13.57
2017-05-15T01:00:27.466Z,13.52
2017-05-15T01:01:08.055Z,13.52
2017-05-15T01:01:48.641Z,13.54
2017-05-15T01:02:29.198Z,13.55
2017-05-15T01:03:09.789Z,13.51
2017-05-15T01:03:50.389Z,13.51
2017-05-15T01:04:30.951Z,13.49
2017-05-15T01:05:11.530Z,13.54
2017-05-15T01:05:52.121Z,13.52
2017-05-15T01:06:32.688Z,13.54
2017-05-15T01:07:13.254Z,13.57
2017-05-15T01:07:53.874Z,13.6
2017-05-15T01:08:34.433Z,13.54
2017-05-15T01:09:15.009Z,13.59
2017-05-15T01:09:55.575Z,13.54
2017-05-15T01:10:36.164Z,13.59
2017-05-15T01:11:16.740Z,13.54
2017-05-15T01:11:57.312Z,13.57
2017-05-15T01:12:37.919Z,13.6
2017-05-15T01:13:18.483Z,13.52
2017-05-15T01:13:59.079Z,13.57
2017-05-15T01:14:39.632Z,13.57
2017-05-15T01:15:20.211Z,13.6
2017-05-15T01:16:00.783Z,13.55
2017-05-15T01:16:41.353Z,13.59
2017-05-15T01:17:21.932Z,13.54
2017-05-15T01:18:02.521Z,13.54
2017-05-15T01:18:43.088Z,13.6
2017-05-15T01:19:23.670Z,13.57
2017-05-15T01:20:04.245Z,13.54
2017-05-15T01:20:44.814Z,13.46
2017-05-15T01:21:25.396Z,13.54
2017-05-15T01:22:05.972Z,13.51
2017-05-15T01:22:46.548Z,13.54
2017-05-15T01:23:27.120Z,13.54
2017-05-15T01:24:07.701Z,13.51
2017-05-15T01:24:48.292Z,13.51
2017-05-15T01:25:28.875Z,13.41
2017-05-15T01:26:09.445Z,13.39
2017-05-15T01:26:50.015Z,13.42
2017-05-15T01:27:30.598Z,13.41
2017-05-15T01:28:11.166Z,13.42
2017-05-15T01:28:51.749Z,13.39
2017-05-15T01:29:32.330Z,13.44
2017-05-15T01:30:12.913Z,13.44
2017-05-15T01:30:53.491Z,13.42
2017-05-15T01:31:34.114Z,13.3
2017-05-15T01:32:14.663Z,13.28
2017-05-15T01:32:55.214Z,13.29
2017-05-15T01:33:35.860Z,13.3
2017-05-15T01:34:16.448Z,13.26
2017-05-15T01:34:57.045Z,13.29
2017-05-15T01:35:37.611Z,13.26
2017-05-15T01:36:18.277Z,13.26
2017-05-15T01:36:58.943Z,13.2
2017-05-15T01:37:39.510Z,13.22
2017-05-15T01:38:20.119Z,13.2
2017-05-15T01:39:00.724Z,13.19
2017-05-15T01:39:41.301Z,13.12
2017-05-15T01:40:21.878Z,13.14
2017-05-15T01:41:02.477Z,13.15
2017-05-15T01:41:43.060Z,13.08
2017-05-15T01:42:23.633Z,13.05
2017-05-15T01:43:04.216Z,13.08
2017-05-15T01:43:44.793Z,13
2017-05-15T01:44:25.385Z,13
2017-05-15T01:45:05.957Z,13.03
2017-05-15T01:45:46.569Z,13.05
2017-05-15T01:46:27.146Z,13
2017-05-15T01:47:07.721Z,13.08
2017-05-15T01:47:48.303Z,12.93
2017-05-15T01:48:28.887Z,12.95
2017-05-15T01:49:09.445Z,12.92
2017-05-15T01:49:50.038Z,12.92
2017-05-15T01:50:30.620Z,12.92
2017-05-15T01:51:11.203Z,12.92
2017-05-15T01:51:51.851Z,12.95
2017-05-15T01:52:32.446Z,12.86
2017-05-15T01:53:13.062Z,12.83
2017-05-15T01:53:53.620Z,12.78
2017-05-15T01:54:34.203Z,12.89
2017-05-15T01:55:14.792Z,12.9
2017-05-15T01:55:55.361Z,12.86
2017-05-15T01:56:35.940Z,12.89
2017-05-15T01:57:16.546Z,12.86
2017-05-15T01:57:57.142Z,12.86
2017-05-15T01:58:37.722Z,12.83
2017-05-15T01:59:18.300Z,12.85
2017-05-15T01:59:58.919Z,12.87
2017-05-15T02:00:39.447Z,12.86
2017-05-15T02:01:20.056Z,12.87
2017-05-15T02:02:00.603Z,12.9
2017-05-15T02:02:41.190Z,12.92
2017-05-15T02:03:21.782Z,12.95
2017-05-15T02:04:02.370Z,12.89
2017-05-15T02:04:42.956Z,12.97
2017-05-15T02:05:23.527Z,12.96
2017-05-15T02:06:04.139Z,12.93
2017-05-15T02:06:44.692Z,12.96
2017-05-15T02:07:25.268Z,12.96
2017-05-15T02:08:05.839Z,12.97
2017-05-15T02:08:46.411Z,13.03
2017-05-15T02:09:26.984Z,13.03
2017-05-15T02:10:07.548Z,13.07
2017-05-15T02:10:48.156Z,13.04
2017-05-15T02:11:28.729Z,13.03
2017-05-15T02:12:09.311Z,13.03
2017-05-15T02:12:49.893Z,13.07
2017-05-15T02:13:30.480Z,13.03
2017-05-15T02:14:11.056Z,13.01
2017-05-15T02:14:51.627Z,13.03
2017-05-15T02:15:32.210Z,13
2017-05-15T02:16:12.768Z,13.04
2017-05-15T02:16:53.343Z,13
2017-05-15T02:17:33.922Z,13.01
2017-05-15T02:18:14.493Z,13.05
2017-05-15T02:18:55.076Z,13.05
2017-05-15T02:19:35.648Z,13.01
2017-05-15T02:20:16.228Z,13.08
2017-05-15T02:20:56.805Z,13.01
2017-05-15T02:21:37.396Z,13.03
2017-05-15T02:22:17.988Z,13.03
2017-05-15T02:22:58.537Z,13.03
2017-05-15T02:23:39.118Z,12.97
2017-05-15T02:24:19.693Z,13.01
2017-05-15T02:25:00.279Z,13.03
2017-05-15T02:25:40.850Z,13.05
2017-05-15T02:26:21.416Z,13.05
2017-05-15T02:27:01.989Z,13.11
2017-05-15T02:27:42.564Z,13.1
2017-05-15T02:28:23.137Z,13.11
2017-05-15T02:29:03.718Z,13.11
2017-05-15T02:29:44.291Z,13.11
2017-05-15T02:30:24.862Z,13.2
2017-05-15T02:31:05.486Z,13.2
2017-05-15T02:31:46.033Z,13.14
2017-05-15T02:32:26.606Z,13.17
2017-05-15T02:33:07.177Z,13.19
2017-05-15T02:33:47.746Z,13.19
2017-05-15T02:34:28.341Z,13.14
2017-05-15T02:35:08.931Z,13.15
2017-05-15T02:35:49.511Z,13.14
2017-05-15T02:36:30.079Z,13.15
2017-05-15T02:37:10.649Z,13.17
2017-05-15T02:37:51.238Z,13.19
2017-05-15T02:38:31.810Z,13.22
2017-05-15T02:39:12.388Z,13.17
2017-05-15T02:39:52.935Z,13.19
2017-05-15T02:40:33.511Z,13.15
2017-05-15T02:41:14.090Z,13.17
2017-05-15T02:41:54.684Z,13.17
2017-05-15T02:42:35.248Z,13.2
2017-05-15T02:43:15.871Z,13.2
2017-05-15T02:43:56.466Z,13.2
2017-05-15T02:44:37.062Z,13.22
2017-05-15T02:45:17.632Z,13.29
2017-05-15T02:45:58.215Z,13.22
2017-05-15T02:46:38.794Z,13.22
2017-05-15T02:47:19.386Z,13.19
2017-05-15T02:47:59.950Z,13.22
2017-05-15T02:48:40.522Z,13.22
2017-05-15T02:49:21.149Z,13.15
2017-05-15T02:50:01.733Z,13.2
2017-05-15T02:50:42.318Z,13.25
2017-05-15T02:51:22.896Z,13.2
2017-05-15T02:52:03.484Z,13.23
2017-05-15T02:52:44.057Z,13.19
2017-05-15T02:53:24.649Z,13.22
2017-05-15T02:54:05.240Z,13.23
2017-05-15T02:54:45.811Z,13.22
2017-05-15T02:55:26.378Z,13.22
2017-05-15T02:56:06.954Z,13.15
2017-05-15T02:56:47.544Z,13.15
2017-05-15T02:57:28.138Z,13.19
2017-05-15T02:58:08.723Z,13.22
2017-05-15T02:58:49.301Z,13.19
2017-05-15T02:59:29.871Z,13.19
2017-05-15T03:00:10.477Z,13.2
2017-05-15T03:00:51.055Z,13.25
2017-05-15T03:01:31.662Z,13.17
2017-05-15T03:02:12.222Z,13.23
2017-05-15T03:02:52.816Z,13.17
2017-05-15T03:03:33.379Z,13.22
2017-05-15T03:04:13.979Z,13.19
2017-05-15T03:04:54.546Z,13.17
2017-05-15T03:05:35.133Z,13.19
2017-05-15T03:06:15.729Z,13.17
2017-05-15T03:06:56.344Z,13.12
2017-05-15T03:07:36.930Z,13.1
2017-05-15T03:08:17.550Z,13.11
2017-05-15T03:08:58.739Z,13.14
2017-05-15T03:09:39.097Z,13.11
2017-05-15T03:10:19.691Z,13.03
2017-05-15T03:11:00.274Z,13.07
2017-05-15T03:11:40.854Z,13.12
2017-05-15T03:12:21.452Z,13.11
2017-05-15T03:13:02.003Z,13.1
2017-05-15T03:13:42.588Z,13.15
2017-05-15T03:14:23.163Z,13.12
2017-05-15T03:15:03.746Z,13.11
2017-05-15T03:15:44.344Z,13.1
2017-05-15T03:16:24.928Z,13.12
2017-05-15T03:17:05.512Z,13.11
2017-05-15T03:17:46.095Z,13.07
2017-05-15T03:18:26.667Z,13.08
2017-05-15T03:19:07.268Z,13.07
2017-05-15T03:19:47.829Z,13.12
2017-05-15T03:20:28.400Z,13.08
2017-05-15T03:21:08.977Z,13.12
2017-05-15T03:21:49.549Z,13.15
2017-05-15T03:22:30.120Z,13.12
2017-05-15T03:23:10.719Z,13
2017-05-15T03:23:51.323Z,13.07
2017-05-15T03:24:31.928Z,13.03
2017-05-15T03:25:12.525Z,13.03
2017-05-15T03:25:53.110Z,13.05
2017-05-15T03:26:33.687Z,12.97
2017-05-15T03:27:14.273Z,12.95
2017-05-15T03:27:54.842Z,12.97
2017-05-15T03:28:35.426Z,12.97
2017-05-15T03:29:16.013Z,12.95
2017-05-15T03:29:56.586Z,12.89
2017-05-15T03:30:37.176Z,12.93
2017-05-15T03:31:17.772Z,12.95
2017-05-15T03:31:58.343Z,12.86
2017-05-15T03:32:38.974Z,12.86
2017-05-15T03:33:19.605Z,12.78
2017-05-15T03:34:00.176Z,12.85
2017-05-15T03:34:40.769Z,12.79
2017-05-15T03:35:21.361Z,12.85
2017-05-15T03:36:02.034Z,12.83
2017-05-15T03:36:42.591Z,12.83
2017-05-15T03:37:23.159Z,12.83
2017-05-15T03:38:03.776Z,12.78
2017-05-15T03:38:44.351Z,12.82
2017-05-15T03:39:24.928Z,12.78
2017-05-15T03:40:05.505Z,12.68
2017-05-15T03:40:46.079Z,12.78
2017-05-15T03:41:26.641Z,12.67
2017-05-15T03:42:07.214Z,12.71
2017-05-15T03:42:47.819Z,12.7
2017-05-15T03:43:28.424Z,12.7
2017-05-15T03:44:09.013Z,12.62
2017-05-15T03:44:49.598Z,12.57
2017-05-15T03:45:30.174Z,12.47
2017-05-15T03:46:10.802Z,12.5
2017-05-15T03:46:51.379Z,12.45
2017-05-15T03:47:31.995Z,12.47
2017-05-15T03:48:12.589Z,12.37
2017-05-15T03:48:53.180Z,12.35
2017-05-15T03:49:33.756Z,12.35
2017-05-15T03:50:14.323Z,12.34
2017-05-15T03:50:54.900Z,12.35
2017-05-15T03:51:35.484Z,12.34
2017-05-15T03:52:16.070Z,12.29
2017-05-15T03:52:56.649Z,12.37
2017-05-15T03:53:37.256Z,12.38
2017-05-15T03:54:17.853Z,12.31
2017-05-15T03:54:58.468Z,12.24
2017-05-15T03:55:39.061Z,12.28
2017-05-15T03:56:19.650Z,12.28
2017-05-15T03:57:00.274Z,12.14
2017-05-15T03:57:40.810Z,12.13
2017-05-15T03:58:21.406Z,12.19
2017-05-15T03:59:02.001Z,12.13
2017-05-15T03:59:42.562Z,12.01
2017-05-15T04:00:23.165Z,12.02
2017-05-15T04:01:03.774Z,12.02
2017-05-15T04:01:44.385Z,12.09
2017-05-15T04:02:24.958Z,12.02
2017-05-15T04:03:05.571Z,11.95
2017-05-15T04:03:46.163Z,12.02
2017-05-15T04:04:26.762Z,12.09
2017-05-15T04:05:07.341Z,11.88
2017-05-15T04:05:47.938Z,11.96
2017-05-15T04:06:28.523Z,11.95
2017-05-15T04:07:09.120Z,11.9
2017-05-15T04:07:49.692Z,11.91
2017-05-15T04:08:30.328Z,11.86
2017-05-15T04:09:10.876Z,11.9
2017-05-15T04:09:51.483Z,11.9
2017-05-15T04:10:32.055Z,11.94
2017-05-15T04:11:12.666Z,11.94
2017-05-15T04:11:53.246Z,11.88
2017-05-15T04:12:33.831Z,11.91
2017-05-15T04:13:14.401Z,11.86
2017-05-15T04:13:54.994Z,11.86
2017-05-15T04:14:35.619Z,11.91
2017-05-15T04:15:16.159Z,11.88
2017-05-15T04:15:56.727Z,11.94
2017-05-15T04:16:37.301Z,11.83
2017-05-15T04:17:17.884Z,11.95
2017-05-15T04:17:58.464Z,11.9
2017-05-15T04:18:39.058Z,11.94
2017-05-15T04:19:19.629Z,11.86
2017-05-15T04:20:00.198Z,11.95
2017-05-15T04:20:40.772Z,11.91
2017-05-15T04:21:21.414Z,11.86
2017-05-15T04:22:01.976Z,11.86
2017-05-15T04:22:42.565Z,11.91
2017-05-15T04:23:23.139Z,11.9
2017-05-15T04:24:03.708Z,11.91
2017-05-15T04:24:44.303Z,11.91
2017-05-15T04:25:24.891Z,11.85
2017-05-15T04:26:05.486Z,11.85
2017-05-15T04:26:46.102Z,11.95
2017-05-15T04:27:26.688Z,11.91
2017-05-15T04:28:07.300Z,11.86
2017-05-15T04:28:47.863Z,11.86
2017-05-15T04:29:28.421Z,11.88
2017-05-15T04:30:08.997Z,11.94
2017-05-15T04:30:49.575Z,11.94
2017-05-15T04:31:30.172Z,11.9
2017-05-15T04:32:10.869Z,11.94
2017-05-15T04:32:51.476Z,11.94
2017-05-15T04:33:32.040Z,11.94
2017-05-15T04:34:12.630Z,11.91
2017-05-15T04:34:53.199Z,11.95
2017-05-15T04:35:33.778Z,11.98
2017-05-15T04:36:14.356Z,11.94
2017-05-15T04:36:54.984Z,11.91
2017-05-15T04:37:35.547Z,11.91
2017-05-15T04:38:16.123Z,11.96
2017-05-15T04:38:56.707Z,12.05
2017-05-15T04:39:37.290Z,12.04
2017-05-15T04:40:17.869Z,11.99
2017-05-15T04:40:58.460Z,12.05
2017-05-15T04:41:39.039Z,12.1
2017-05-15T04:42:19.648Z,12.02
2017-05-15T04:43:00.247Z,11.98
2017-05-15T04:43:40.870Z,12.02
2017-05-15T04:44:21.460Z,11.99
2017-05-15T04:45:02.019Z,11.99
2017-05-15T04:45:45.878Z,12.07
2017-05-15T04:46:26.459Z,12.07
2017-05-15T04:47:07.043Z,12.04
2017-05-15T04:47:47.646Z,12.02
2017-05-15T04:48:28.248Z,12.04
2017-05-15T04:49:08.817Z,12.09
2017-05-15T04:49:49.394Z,12.05
2017-05-15T04:50:29.967Z,12.02
2017-05-15T04:51:10.587Z,12.02
2017-05-15T04:51:51.195Z,12.09
2017-05-15T04:52:31.783Z,12.02
2017-05-15T04:53:12.425Z,12.1
2017-05-15T04:53:52.991Z,11.99
2017-05-15T04:54:33.582Z,12.02
2017-05-15T04:55:14.156Z,12.07
2017-05-15T04:55:54.738Z,12.13
2017-05-15T04:56:35.352Z,12.17
2017-05-15T04:57:15.961Z,12.1
2017-05-15T04:57:56.544Z,12.14
2017-05-15T04:58:37.119Z,12.19
2017-05-15T04:59:17.702Z,12.19
2017-05-15T04:59:58.321Z,12.14
2017-05-15T05:00:38.885Z,12.14
2017-05-15T05:01:19.460Z,12.13
2017-05-15T05:02:00.083Z,12.17
2017-05-15T05:02:40.671Z,12.12
2017-05-15T05:03:21.288Z,12.2
2017-05-15T05:04:01.884Z,12.09
2017-05-15T05:04:42.582Z,12.13
2017-05-15T05:05:23.170Z,12.31
2017-05-15T05:06:03.772Z,12.24
2017-05-15T05:06:44.355Z,12.21
2017-05-15T05:07:24.926Z,12.29
2017-05-15T05:08:05.500Z,12.27
2017-05-15T05:08:46.067Z,12.35
2017-05-15T05:09:26.644Z,12.37
2017-05-15T05:10:07.207Z,12.38
2017-05-15T05:10:47.782Z,12.32
2017-05-15T05:11:28.382Z,12.35
2017-05-15T05:12:08.954Z,12.39
2017-05-15T05:12:49.541Z,12.49
2017-05-15T05:13:30.156Z,12.42
2017-05-15T05:14:10.745Z,12.53
2017-05-15T05:14:51.342Z,12.6
2017-05-15T05:15:31.917Z,12.62
2017-05-15T05:16:12.505Z,12.64
2017-05-15T05:16:53.095Z,12.68
2017-05-15T05:17:33.677Z,12.67
2017-05-15T05:18:14.256Z,12.7
2017-05-15T05:18:55.139Z,12.71
2017-05-15T05:19:35.462Z,12.79
2017-05-15T05:20:16.113Z,12.86
2017-05-15T05:20:56.680Z,12.82
2017-05-15T05:21:37.340Z,12.87
2017-05-15T05:22:17.954Z,12.83
2017-05-15T05:22:58.596Z,12.92
2017-05-15T05:23:39.365Z,12.95
2017-05-15T05:24:20.108Z,12.93
2017-05-15T05:25:00.801Z,13
2017-05-15T05:25:41.420Z,13.04
2017-05-15T05:26:21.948Z,13.04
2017-05-15T05:27:02.525Z,13.03
2017-05-15T05:27:43.113Z,13.03
2017-05-15T05:28:23.699Z,13.03
2017-05-15T05:29:04.279Z,12.97
2017-05-15T05:29:44.885Z,13.12
2017-05-15T05:30:25.462Z,13.11
2017-05-15T05:31:06.033Z,13.11
2017-05-15T05:31:46.619Z,13.1
2017-05-15T05:32:27.223Z,13.11
2017-05-15T05:33:07.809Z,13.08
2017-05-15T05:33:48.404Z,13.17
2017-05-15T05:34:28.977Z,13.15
2017-05-15T05:35:09.554Z,13.12
2017-05-15T05:35:50.173Z,13.14
2017-05-15T05:36:30.746Z,13.07
2017-05-15T05:37:11.329Z,13.17
2017-05-15T05:37:51.903Z,13.15
2017-05-15T05:38:32.482Z,13.12
2017-05-15T05:39:13.078Z,13.12
2017-05-15T05:39:53.657Z,13.12
2017-05-15T05:40:34.242Z,13.1
2017-05-15T05:41:14.821Z,13.11
2017-05-15T05:41:55.417Z,13.01
2017-05-15T05:42:36.003Z,13.08
2017-05-15T05:43:16.579Z,13.05
2017-05-15T05:43:57.167Z,13.04
2017-05-15T05:44:37.742Z,13.03
2017-05-15T05:45:18.318Z,13.04
2017-05-15T05:45:58.890Z,13.03
2017-05-15T05:46:39.498Z,13.01
2017-05-15T05:47:20.064Z,13
2017-05-15T05:48:00.644Z,12.97
2017-05-15T05:48:41.231Z,13.01
2017-05-15T05:49:21.805Z,13.04
2017-05-15T05:50:02.399Z,13
2017-05-15T05:50:42.988Z,13.03
2017-05-15T05:51:23.567Z,13.01
2017-05-15T05:52:04.146Z,13.03
2017-05-15T05:52:44.742Z,13.08
2017-05-15T05:53:25.326Z,13.01
2017-05-15T05:54:06.130Z,13
2017-05-15T05:54:46.869Z,12.96
2017-05-15T05:55:27.455Z,13.01
2017-05-15T05:56:08.034Z,13.03
2017-05-15T05:56:48.651Z,13.04
2017-05-15T05:57:29.255Z,13.03
2017-05-15T05:58:09.825Z,13.08
2017-05-15T05:58:50.415Z,13.12
2017-05-15T05:59:30.995Z,13.08
2017-05-15T06:00:11.576Z,13.17
2017-05-15T06:00:52.183Z,13.15
2017-05-15T06:01:32.749Z,13.22
2017-05-15T06:02:13.329Z,13.2
2017-05-15T06:02:53.926Z,13.12
2017-05-15T06:03:34.501Z,13.26
2017-05-15T06:04:15.076Z,13.23
2017-05-15T06:04:55.683Z,13.29
2017-05-15T06:05:36.267Z,13.42
2017-05-15T06:06:16.831Z,13.36
2017-05-15T06:06:57.398Z,13.42
2017-05-15T06:07:37.969Z,13.39
2017-05-15T06:08:18.563Z,13.54
2017-05-15T06:08:59.137Z,13.57
2017-05-15T06:09:39.706Z,13.59
2017-05-15T06:10:20.279Z,13.51
2017-05-15T06:11:00.881Z,13.67
2017-05-15T06:11:41.420Z,13.69
2017-05-15T06:12:21.995Z,13.69
2017-05-15T06:13:02.567Z,13.79
2017-05-15T06:13:43.141Z,13.79
2017-05-15T06:14:23.724Z,13.89
2017-05-15T06:15:04.315Z,13.87
2017-05-15T06:15:44.891Z,13.89
2017-05-15T06:16:25.484Z,13.91
2017-05-15T06:17:06.069Z,13.95
2017-05-15T06:17:46.652Z,14.02
2017-05-15T06:18:27.221Z,14.06
2017-05-15T06:19:07.807Z,14.06
2017-05-15T06:19:48.382Z,14.17
2017-05-15T06:20:28.952Z,14.18
2017-05-15T06:21:09.534Z,14.2
2017-05-15T06:21:50.108Z,14.25
2017-05-15T06:22:30.689Z,14.21
2017-05-15T06:23:11.262Z,14.35
2017-05-15T06:23:51.863Z,14.4
2017-05-15T06:24:32.415Z,14.39
2017-05-15T06:25:12.991Z,14.54
2017-05-15T06:25:53.561Z,14.47
2017-05-15T06:26:35.945Z,14.52
2017-05-15T06:27:16.534Z,14.52
2017-05-15T06:27:57.105Z,14.57
2017-05-15T06:28:37.693Z,14.61
2017-05-15T06:29:18.329Z,14.54
2017-05-15T06:29:58.898Z,14.5
2017-05-15T06:30:39.466Z,14.57
2017-05-15T06:31:20.034Z,14.51
2017-05-15T06:32:00.608Z,14.58
2017-05-15T06:32:41.198Z,14.57
2017-05-15T06:33:21.792Z,14.57
2017-05-15T06:34:02.362Z,14.51
2017-05-15T06:34:43.040Z,14.55
2017-05-15T06:35:23.620Z,14.57
2017-05-15T06:36:04.237Z,14.54
2017-05-15T06:36:44.791Z,14.5
2017-05-15T06:37:25.374Z,14.54
2017-05-15T06:38:05.956Z,14.55
2017-05-15T06:38:46.540Z,14.54
2017-05-15T06:39:27.122Z,14.52
2017-05-15T06:40:07.700Z,14.64
2017-05-15T06:40:48.282Z,14.62
2017-05-15T06:41:29.757Z,14.65
2017-05-15T06:42:10.340Z,14.77
2017-05-15T06:42:50.954Z,14.77
2017-05-15T06:43:31.524Z,14.81
2017-05-15T06:44:12.096Z,14.83
2017-05-15T06:44:52.669Z,14.88
2017-05-15T06:45:33.268Z,14.94
2017-05-15T06:46:13.874Z,14.96
2017-05-15T06:46:54.410Z,15.07
2017-05-15T06:47:35.005Z,15.11
2017-05-15T06:48:15.572Z,15.17
2017-05-15T06:48:56.139Z,15.17
2017-05-15T06:49:36.717Z,15.23
2017-05-15T06:50:17.311Z,15.31
2017-05-15T06:50:57.879Z,15.31
2017-05-15T06:51:38.484Z,15.46
2017-05-15T06:52:19.044Z,15.39
2017-05-15T06:52:59.616Z,15.34
2017-05-15T06:53:40.188Z,15.31
2017-05-15T06:54:20.765Z,15.28
2017-05-15T06:55:01.368Z,15.21
2017-05-15T06:55:41.935Z,15.17
2017-05-15T06:56:22.544Z,15.17
2017-05-15T06:57:03.137Z,15.17
2017-05-15T06:57:43.729Z,15.21
2017-05-15T06:58:24.323Z,15.21
2017-05-15T06:59:04.925Z,15.25
2017-05-15T06:59:45.490Z,15.35
2017-05-15T07:00:26.077Z,15.44
2017-05-15T07:01:06.669Z,15.47
2017-05-15T07:01:47.247Z,15.64
2017-05-15T07:02:27.830Z,15.72
2017-05-15T07:03:08.424Z,15.86
2017-05-15T07:03:49.000Z,15.97
2017-05-15T07:04:29.572Z,15.9
2017-05-15T07:05:10.150Z,15.97
2017-05-15T07:05:50.728Z,16.04
2017-05-15T07:06:31.319Z,16.09
2017-05-15T07:07:11.900Z,16.23
2017-05-15T07:07:52.509Z,16.21
2017-05-15T07:08:33.089Z,16.15
2017-05-15T07:09:13.671Z,16.08
2017-05-15T07:09:54.262Z,16.07
2017-05-15T07:10:34.850Z,16.02
2017-05-15T07:11:15.433Z,16
2017-05-15T07:11:56.002Z,15.89
2017-05-15T07:12:36.567Z,15.89
2017-05-15T07:13:17.139Z,15.8
2017-05-15T07:13:57.718Z,15.68
2017-05-15T07:14:38.291Z,15.65
2017-05-15T07:15:18.873Z,15.71
2017-05-15T07:15:59.456Z,15.54
2017-05-15T07:16:40.041Z,15.59
2017-05-15T07:17:20.618Z,15.59
2017-05-15T07:18:01.217Z,15.56
2017-05-15T07:18:41.827Z,15.56
2017-05-15T07:19:22.457Z,15.62
2017-05-15T07:20:03.012Z,15.71
2017-05-15T07:20:43.581Z,15.65
2017-05-15T07:21:24.153Z,15.69
2017-05-15T07:22:04.745Z,15.68
2017-05-15T07:22:45.328Z,15.65
2017-05-15T07:23:25.908Z,15.76
2017-05-15T07:24:06.484Z,15.78
2017-05-15T07:24:47.062Z,15.82
2017-05-15T07:25:27.660Z,15.83
2017-05-15T07:26:08.230Z,15.86
2017-05-15T07:26:48.857Z,15.94
2017-05-15T07:27:29.442Z,16
2017-05-15T07:28:10.021Z,15.92
2017-05-15T07:28:50.594Z,15.93
2017-05-15T07:29:31.163Z,15.92
2017-05-15T07:30:11.740Z,16
2017-05-15T07:30:52.329Z,15.96
2017-05-15T07:31:32.917Z,16.01
2017-05-15T07:32:13.503Z,16.02
2017-05-15T07:32:54.089Z,16.01
2017-05-15T07:33:34.670Z,16.04
2017-05-15T07:34:15.258Z,16.02
2017-05-15T07:34:55.830Z,16.01
2017-05-15T07:35:36.405Z,16
2017-05-15T07:36:16.975Z,16.07
2017-05-15T07:36:57.563Z,16.08
2017-05-15T07:37:38.148Z,16.12
2017-05-15T07:38:18.757Z,16.11
2017-05-15T07:38:59.342Z,16.08
2017-05-15T07:39:39.950Z,16.07
2017-05-15T07:40:20.541Z,16.02
2017-05-15T07:41:01.147Z,16.05
2017-05-15T07:41:41.728Z,16.02
2017-05-15T07:42:22.306Z,16.07
2017-05-15T07:43:02.888Z,16.11
2017-05-15T07:43:43.463Z,16.02
2017-05-15T07:44:24.053Z,16.08
2017-05-15T07:45:04.629Z,16.15
2017-05-15T07:45:45.247Z,16.14
2017-05-15T07:46:25.834Z,16.28
2017-05-15T07:47:06.416Z,16.24
2017-05-15T07:47:46.992Z,16.3
2017-05-15T07:48:27.567Z,16.39
2017-05-15T07:49:08.159Z,16.43
2017-05-15T07:49:48.739Z,16.45
2017-05-15T07:50:29.319Z,16.5
2017-05-15T07:51:09.915Z,16.68
2017-05-15T07:51:50.538Z,16.76
2017-05-15T07:52:31.114Z,16.88
2017-05-15T07:53:11.686Z,16.96
2017-05-15T07:53:52.260Z,17.04
2017-05-15T07:54:32.833Z,17.12
2017-05-15T07:55:13.425Z,17.23
2017-05-15T07:55:54.041Z,17.37
2017-05-15T07:56:34.613Z,17.54
2017-05-15T07:57:15.195Z,17.64
2017-05-15T07:57:55.767Z,17.79
2017-05-15T07:58:36.353Z,17.89
2017-05-15T07:59:16.942Z,17.95
2017-05-15T07:59:57.567Z,18.05
2017-05-15T08:00:38.139Z,18.14
2017-05-15T08:01:18.727Z,18.2
2017-05-15T08:01:59.300Z,18.23
2017-05-15T08:02:39.889Z,18.25
2017-05-15T08:03:20.481Z,18.26
2017-05-15T08:04:01.057Z,18.3
2017-05-15T08:04:41.630Z,18.36
2017-05-15T08:05:22.200Z,18.37
2017-05-15T08:06:02.778Z,18.39
2017-05-15T08:06:43.360Z,18.5
2017-05-15T08:07:23.947Z,18.62
2017-05-15T08:08:04.532Z,18.6
2017-05-15T08:08:45.115Z,18.72
2017-05-15T08:09:25.707Z,18.66
2017-05-15T08:10:06.291Z,18.81
2017-05-15T08:10:46.878Z,18.82
2017-05-15T08:11:27.462Z,18.98
2017-05-15T08:12:08.041Z,18.98
2017-05-15T08:12:48.710Z,19.1
2017-05-15T08:13:29.297Z,19.1
2017-05-15T08:14:09.896Z,19.02
2017-05-15T08:14:50.479Z,18.99
2017-05-15T08:15:31.061Z,18.99
2017-05-15T08:16:11.648Z,19
2017-05-15T08:16:52.299Z,19.04
2017-05-15T08:17:32.873Z,19.08
2017-05-15T08:18:13.459Z,19.06
2017-05-15T08:18:54.039Z,19.14
2017-05-15T08:19:34.648Z,19.07
2017-05-15T08:20:15.307Z,18.99
2017-05-15T08:20:55.897Z,18.81
2017-05-15T08:21:36.486Z,18.66
2017-05-15T08:22:17.087Z,18.65
2017-05-15T08:22:57.725Z,18.47
2017-05-15T08:23:38.319Z,18.33
2017-05-15T08:24:18.915Z,18.18
2017-05-15T08:24:59.522Z,17.99
2017-05-15T08:25:40.118Z,17.92
2017-05-15T08:26:20.714Z,17.75
2017-05-15T08:27:01.303Z,17.78
2017-05-15T08:27:41.884Z,17.72
2017-05-15T08:28:22.470Z,17.77
2017-05-15T08:29:03.044Z,17.84
2017-05-15T08:29:43.632Z,17.74
2017-05-15T08:30:24.221Z,17.77
2017-05-15T08:31:04.935Z,17.77
2017-05-15T08:31:45.531Z,17.82
2017-05-15T08:32:26.123Z,17.66
2017-05-15T08:33:06.709Z,17.64
2017-05-15T08:33:47.307Z,17.68
2017-05-15T08:34:27.939Z,17.81
2017-05-15T08:35:08.564Z,17.92
2017-05-15T08:35:49.144Z,17.96
2017-05-15T08:36:29.784Z,17.93
2017-05-15T08:37:10.408Z,17.97
2017-05-15T08:37:51.000Z,18.05
2017-05-15T08:38:31.588Z,18.18
2017-05-15T08:39:12.165Z,18.3
2017-05-15T08:39:52.755Z,18.45
2017-05-15T08:40:33.333Z,18.65
2017-05-15T08:41:13.919Z,18.78
2017-05-15T08:41:54.512Z,19.02
2017-05-15T08:42:35.090Z,19.13
2017-05-15T08:43:15.681Z,19.25
2017-05-15T08:43:56.266Z,19.26
2017-05-15T08:44:36.874Z,19.56
2017-05-15T08:45:17.450Z,19.66